sensor_id;sensor_type;location;lat;lon;timestamp;pressure;altitude;pressure_sealevel;temperature;humidity
3142;BME280;1581;51.568;6.998;2023-12-14T00:00:01;99981.84;;;9.91;100.00
3142;BME280;1581;51.568;6.998;2023-12-14T00:02:30;99976.53;;;9.97;100.00
3142;BME280;1581;51.568;6.998;2023-12-14T00:04:58;99991.47;;;9.92;100.00
3142;BME280;1581;51.568;6.998;2023-12-14T00:07:26;99992.25;;;9.92;100.00
3142;BME280;1581;51.568;6.998;2023-12-14T00:09:54;99995.53;;;9.88;100.00
3142;BME280;1581;51.568;6.998;2023-12-14T00:12:22;100001.47;;;9.90;100.00
3142;BME280;1581;51.568;6.998;2023-12-14T00:14:50;100004.97;;;9.97;100.00
3142;BME280;1581;51.568;6.998;2023-12-14T00:17:18;100010.50;;;9.95;100.00
3142;BME280;1581;51.568;6.998;2023-12-14T00:19:47;100011.28;;;9.89;100.00
3142;BME280;1581;51.568;6.998;2023-12-14T00:22:15;100014.97;;;9.95;100.00
3142;BME280;1581;51.568;6.998;2023-12-14T00:24:43;100011.72;;;9.86;100.00
3142;BME280;1581;51.568;6.998;2023-12-14T00:27:10;100025.63;;;9.82;100.00
3142;BME280;1581;51.568;6.998;2023-12-14T00:29:38;100025.34;;;9.70;100.00
3142;BME280;1581;51.568;6.998;2023-12-14T00:32:06;100043.00;;;9.78;100.00
3142;BME280;1581;51.568;6.998;2023-12-14T00:34:34;100039.72;;;9.82;100.00
3142;BME280;1581;51.568;6.998;2023-12-14T00:37:04;100046.25;;;9.73;100.00
3142;BME280;1581;51.568;6.998;2023-12-14T00:39:32;100046.88;;;9.75;100.00
3142;BME280;1581;51.568;6.998;2023-12-14T00:41:59;100053.25;;;9.81;100.00
3142;BME280;1581;51.568;6.998;2023-12-14T00:44:27;100056.28;;;9.71;100.00
3142;BME280;1581;51.568;6.998;2023-12-14T00:46:57;100061.81;;;9.70;100.00
3142;BME280;1581;51.568;6.998;2023-12-14T00:49:28;100073.66;;;9.67;100.00
3142;BME280;1581;51.568;6.998;2023-12-14T00:51:57;100079.41;;;9.71;100.00
3142;BME280;1581;51.568;6.998;2023-12-14T00:54:28;100087.56;;;9.69;100.00
3142;BME280;1581;51.568;6.998;2023-12-14T00:56:57;100096.78;;;9.67;100.00
3142;BME280;1581;51.568;6.998;2023-12-14T00:59:25;100102.88;;;9.61;100.00
3142;BME280;1581;51.568;6.998;2023-12-14T01:01:56;100106.09;;;9.50;100.00
3142;BME280;1581;51.568;6.998;2023-12-14T01:04:24;100107.13;;;9.49;100.00
3142;BME280;1581;51.568;6.998;2023-12-14T01:06:53;100119.41;;;9.50;100.00
3142;BME280;1581;51.568;6.998;2023-12-14T01:09:20;100125.50;;;9.44;100.00
3142;BME280;1581;51.568;6.998;2023-12-14T01:11:50;100133.25;;;9.39;100.00
3142;BME280;1581;51.568;6.998;2023-12-14T01:14:18;100132.56;;;9.31;100.00
3142;BME280;1581;51.568;6.998;2023-12-14T01:16:45;100137.56;;;9.40;100.00
3142;BME280;1581;51.568;6.998;2023-12-14T01:19:13;100140.38;;;9.38;100.00
3142;BME280;1581;51.568;6.998;2023-12-14T01:21:41;100147.81;;;9.43;100.00
3142;BME280;1581;51.568;6.998;2023-12-14T01:24:09;100156.81;;;9.42;100.00
3142;BME280;1581;51.568;6.998;2023-12-14T01:26:37;100153.19;;;9.29;100.00
3142;BME280;1581;51.568;6.998;2023-12-14T01:29:06;100150.91;;;9.19;100.00
3142;BME280;1581;51.568;6.998;2023-12-14T01:31:34;100158.69;;;9.21;100.00
3142;BME280;1581;51.568;6.998;2023-12-14T01:34:01;100160.91;;;9.17;100.00
3142;BME280;1581;51.568;6.998;2023-12-14T01:36:29;100164.56;;;9.16;100.00
3142;BME280;1581;51.568;6.998;2023-12-14T01:38:57;100171.91;;;9.14;100.00
3142;BME280;1581;51.568;6.998;2023-12-14T01:41:24;100172.56;;;9.16;100.00
3142;BME280;1581;51.568;6.998;2023-12-14T01:43:52;100186.28;;;9.20;100.00
3142;BME280;1581;51.568;6.998;2023-12-14T01:46:21;100186.31;;;9.26;100.00
3142;BME280;1581;51.568;6.998;2023-12-14T01:48:49;100194.34;;;9.33;100.00
3142;BME280;1581;51.568;6.998;2023-12-14T01:51:18;100200.34;;;9.14;100.00
3142;BME280;1581;51.568;6.998;2023-12-14T01:53:45;100202.19;;;9.13;100.00
3142;BME280;1581;51.568;6.998;2023-12-14T01:56:13;100213.44;;;8.94;100.00
3142;BME280;1581;51.568;6.998;2023-12-14T01:58:41;100217.00;;;9.01;100.00
3142;BME280;1581;51.568;6.998;2023-12-14T02:01:16;100227.00;;;8.99;100.00
3142;BME280;1581;51.568;6.998;2023-12-14T02:03:50;100228.66;;;9.00;100.00
3142;BME280;1581;51.568;6.998;2023-12-14T02:06:20;100239.84;;;8.96;100.00
3142;BME280;1581;51.568;6.998;2023-12-14T02:08:48;100252.00;;;9.05;100.00
3142;BME280;1581;51.568;6.998;2023-12-14T02:11:16;100244.97;;;8.97;100.00
3142;BME280;1581;51.568;6.998;2023-12-14T02:13:43;100254.22;;;9.01;100.00
3142;BME280;1581;51.568;6.998;2023-12-14T02:16:11;100250.22;;;8.91;100.00
3142;BME280;1581;51.568;6.998;2023-12-14T02:18:39;100259.03;;;8.91;100.00
3142;BME280;1581;51.568;6.998;2023-12-14T02:21:08;100264.78;;;8.95;100.00
3142;BME280;1581;51.568;6.998;2023-12-14T02:23:43;100258.59;;;8.88;100.00
3142;BME280;1581;51.568;6.998;2023-12-14T02:26:11;100268.50;;;9.00;100.00
3142;BME280;1581;51.568;6.998;2023-12-14T02:28:39;100270.59;;;9.05;100.00
3142;BME280;1581;51.568;6.998;2023-12-14T02:31:07;100274.00;;;8.99;100.00
3142;BME280;1581;51.568;6.998;2023-12-14T02:33:35;100274.84;;;8.99;100.00
3142;BME280;1581;51.568;6.998;2023-12-14T02:36:04;100281.53;;;8.95;100.00
3142;BME280;1581;51.568;6.998;2023-12-14T02:38:32;100285.16;;;8.88;100.00
3142;BME280;1581;51.568;6.998;2023-12-14T02:41:01;100282.34;;;8.75;100.00
3142;BME280;1581;51.568;6.998;2023-12-14T02:43:29;100282.41;;;8.81;100.00
3142;BME280;1581;51.568;6.998;2023-12-14T02:45:56;100290.59;;;8.65;100.00
3142;BME280;1581;51.568;6.998;2023-12-14T02:48:28;100288.38;;;8.69;100.00
3142;BME280;1581;51.568;6.998;2023-12-14T02:50:56;100294.06;;;8.80;100.00
3142;BME280;1581;51.568;6.998;2023-12-14T02:53:26;100297.44;;;8.74;100.00
3142;BME280;1581;51.568;6.998;2023-12-14T02:55:53;100299.22;;;8.67;100.00
3142;BME280;1581;51.568;6.998;2023-12-14T02:58:23;100292.97;;;8.75;100.00
3142;BME280;1581;51.568;6.998;2023-12-14T03:00:51;100311.94;;;8.72;100.00
3142;BME280;1581;51.568;6.998;2023-12-14T03:03:18;100302.31;;;8.71;100.00
3142;BME280;1581;51.568;6.998;2023-12-14T03:05:46;100308.91;;;8.75;100.00
3142;BME280;1581;51.568;6.998;2023-12-14T03:08:15;100321.34;;;8.74;100.00
3142;BME280;1581;51.568;6.998;2023-12-14T03:10:43;100325.22;;;8.72;100.00
3142;BME280;1581;51.568;6.998;2023-12-14T03:13:11;100337.03;;;8.69;100.00
3142;BME280;1581;51.568;6.998;2023-12-14T03:15:44;100345.66;;;8.71;100.00
3142;BME280;1581;51.568;6.998;2023-12-14T03:18:15;100347.00;;;8.67;100.00
3142;BME280;1581;51.568;6.998;2023-12-14T03:20:42;100349.75;;;8.74;100.00
3142;BME280;1581;51.568;6.998;2023-12-14T03:23:10;100351.59;;;8.59;100.00
3142;BME280;1581;51.568;6.998;2023-12-14T03:25:38;100345.47;;;8.58;100.00
3142;BME280;1581;51.568;6.998;2023-12-14T03:28:06;100355.28;;;8.72;100.00
3142;BME280;1581;51.568;6.998;2023-12-14T03:30:34;100361.84;;;8.62;100.00
3142;BME280;1581;51.568;6.998;2023-12-14T03:33:03;100366.38;;;8.61;100.00
3142;BME280;1581;51.568;6.998;2023-12-14T03:35:33;100373.69;;;8.59;100.00
3142;BME280;1581;51.568;6.998;2023-12-14T03:38:02;100374.50;;;8.60;100.00
3142;BME280;1581;51.568;6.998;2023-12-14T03:40:29;100378.72;;;8.54;100.00
3142;BME280;1581;51.568;6.998;2023-12-14T03:42:57;100391.81;;;8.56;100.00
3142;BME280;1581;51.568;6.998;2023-12-14T03:45:25;100388.16;;;8.57;100.00
3142;BME280;1581;51.568;6.998;2023-12-14T03:47:53;100387.97;;;8.58;100.00
3142;BME280;1581;51.568;6.998;2023-12-14T03:50:22;100392.53;;;8.64;100.00
3142;BME280;1581;51.568;6.998;2023-12-14T03:52:49;100398.41;;;8.60;100.00
3142;BME280;1581;51.568;6.998;2023-12-14T03:55:17;100405.00;;;8.50;100.00
3142;BME280;1581;51.568;6.998;2023-12-14T03:57:45;100403.44;;;8.55;100.00
3142;BME280;1581;51.568;6.998;2023-12-14T04:00:14;100409.56;;;8.55;100.00
3142;BME280;1581;51.568;6.998;2023-12-14T04:02:42;100405.00;;;8.50;100.00
3142;BME280;1581;51.568;6.998;2023-12-14T04:05:10;100416.19;;;8.45;100.00
3142;BME280;1581;51.568;6.998;2023-12-14T04:07:40;100417.81;;;8.46;100.00
3142;BME280;1581;51.568;6.998;2023-12-14T04:10:09;100425.16;;;8.44;100.00
3142;BME280;1581;51.568;6.998;2023-12-14T04:12:37;100432.38;;;8.50;100.00
3142;BME280;1581;51.568;6.998;2023-12-14T04:15:07;100435.66;;;8.38;100.00
3142;BME280;1581;51.568;6.998;2023-12-14T04:17:35;100434.75;;;8.45;100.00
3142;BME280;1581;51.568;6.998;2023-12-14T04:20:05;100442.09;;;8.43;100.00
3142;BME280;1581;51.568;6.998;2023-12-14T04:22:33;100435.03;;;8.36;100.00
3142;BME280;1581;51.568;6.998;2023-12-14T04:25:02;100446.03;;;8.33;100.00
3142;BME280;1581;51.568;6.998;2023-12-14T04:27:30;100444.25;;;8.25;100.00
3142;BME280;1581;51.568;6.998;2023-12-14T04:29:58;100450.78;;;8.37;100.00
3142;BME280;1581;51.568;6.998;2023-12-14T04:32:26;100462.03;;;8.39;100.00
3142;BME280;1581;51.568;6.998;2023-12-14T04:34:54;100464.22;;;8.36;100.00
3142;BME280;1581;51.568;6.998;2023-12-14T04:37:21;100467.59;;;8.30;100.00
3142;BME280;1581;51.568;6.998;2023-12-14T04:39:49;100471.25;;;8.29;100.00
3142;BME280;1581;51.568;6.998;2023-12-14T04:42:18;100474.13;;;8.27;100.00
3142;BME280;1581;51.568;6.998;2023-12-14T04:44:46;100478.19;;;8.15;100.00
3142;BME280;1581;51.568;6.998;2023-12-14T04:47:14;100482.44;;;8.24;100.00
3142;BME280;1581;51.568;6.998;2023-12-14T04:49:42;100485.00;;;8.32;100.00
3142;BME280;1581;51.568;6.998;2023-12-14T04:52:10;100492.31;;;8.30;100.00
3142;BME280;1581;51.568;6.998;2023-12-14T04:54:37;100494.06;;;8.38;100.00
3142;BME280;1581;51.568;6.998;2023-12-14T04:57:06;100498.03;;;8.42;100.00
3142;BME280;1581;51.568;6.998;2023-12-14T04:59:35;100504.03;;;8.36;100.00
3142;BME280;1581;51.568;6.998;2023-12-14T05:02:03;100504.59;;;8.31;100.00
3142;BME280;1581;51.568;6.998;2023-12-14T05:04:31;100501.47;;;8.28;100.00
3142;BME280;1581;51.568;6.998;2023-12-14T05:06:59;100502.88;;;8.38;100.00
3142;BME280;1581;51.568;6.998;2023-12-14T05:09:27;100514.31;;;8.39;100.00
3142;BME280;1581;51.568;6.998;2023-12-14T05:11:55;100511.00;;;8.37;100.00
3142;BME280;1581;51.568;6.998;2023-12-14T05:14:23;100509.72;;;8.33;100.00
3142;BME280;1581;51.568;6.998;2023-12-14T05:16:52;100514.47;;;8.23;100.00
3142;BME280;1581;51.568;6.998;2023-12-14T05:19:20;100522.06;;;8.26;100.00
3142;BME280;1581;51.568;6.998;2023-12-14T05:21:47;100524.25;;;8.22;100.00
3142;BME280;1581;51.568;6.998;2023-12-14T05:24:15;100522.44;;;8.23;100.00
3142;BME280;1581;51.568;6.998;2023-12-14T05:26:43;100530.41;;;8.23;100.00
3142;BME280;1581;51.568;6.998;2023-12-14T05:29:11;100528.84;;;8.28;100.00
3142;BME280;1581;51.568;6.998;2023-12-14T05:31:38;100532.97;;;8.31;100.00
3142;BME280;1581;51.568;6.998;2023-12-14T05:34:08;100542.16;;;8.43;100.00
3142;BME280;1581;51.568;6.998;2023-12-14T05:36:35;100537.00;;;8.41;100.00
3142;BME280;1581;51.568;6.998;2023-12-14T05:39:03;100537.00;;;8.41;100.00
3142;BME280;1581;51.568;6.998;2023-12-14T05:41:31;100549.09;;;8.44;100.00
3142;BME280;1581;51.568;6.998;2023-12-14T05:43:58;100545.34;;;8.38;100.00
3142;BME280;1581;51.568;6.998;2023-12-14T05:46:26;100565.53;;;8.25;100.00
3142;BME280;1581;51.568;6.998;2023-12-14T05:48:54;100564.53;;;8.26;100.00
3142;BME280;1581;51.568;6.998;2023-12-14T05:51:30;100582.09;;;8.27;100.00
3142;BME280;1581;51.568;6.998;2023-12-14T05:53:58;100580.16;;;8.21;100.00
3142;BME280;1581;51.568;6.998;2023-12-14T05:56:26;100584.16;;;8.17;100.00
3142;BME280;1581;51.568;6.998;2023-12-14T05:58:55;100589.97;;;8.12;100.00
3142;BME280;1581;51.568;6.998;2023-12-14T06:01:24;100594.47;;;8.12;100.00
3142;BME280;1581;51.568;6.998;2023-12-14T06:03:52;100601.09;;;8.16;100.00
3142;BME280;1581;51.568;6.998;2023-12-14T06:06:19;100602.53;;;8.26;100.00
3142;BME280;1581;51.568;6.998;2023-12-14T06:08:49;100605.66;;;8.30;100.00
3142;BME280;1581;51.568;6.998;2023-12-14T06:11:17;100624.91;;;8.24;100.00
3142;BME280;1581;51.568;6.998;2023-12-14T06:13:47;100627.63;;;8.16;100.00
3142;BME280;1581;51.568;6.998;2023-12-14T06:16:15;100634.91;;;8.22;100.00
3142;BME280;1581;51.568;6.998;2023-12-14T06:18:43;100635.19;;;8.27;100.00
3142;BME280;1581;51.568;6.998;2023-12-14T06:21:12;100636.56;;;8.23;100.00
3142;BME280;1581;51.568;6.998;2023-12-14T06:23:39;100651.66;;;8.22;100.00
3142;BME280;1581;51.568;6.998;2023-12-14T06:26:08;100659.59;;;8.22;100.00
3142;BME280;1581;51.568;6.998;2023-12-14T06:28:36;100660.31;;;8.16;100.00
3142;BME280;1581;51.568;6.998;2023-12-14T06:31:05;100667.13;;;8.11;100.00
3142;BME280;1581;51.568;6.998;2023-12-14T06:33:34;100671.22;;;8.21;100.00
3142;BME280;1581;51.568;6.998;2023-12-14T06:36:04;100665.75;;;8.15;100.00
3142;BME280;1581;51.568;6.998;2023-12-14T06:38:32;100679.41;;;8.04;100.00
3142;BME280;1581;51.568;6.998;2023-12-14T06:41:00;100676.75;;;8.04;100.00
3142;BME280;1581;51.568;6.998;2023-12-14T06:43:30;100682.84;;;8.12;100.00
3142;BME280;1581;51.568;6.998;2023-12-14T06:45:58;100695.31;;;8.12;100.00
3142;BME280;1581;51.568;6.998;2023-12-14T06:48:25;100692.06;;;8.02;100.00
3142;BME280;1581;51.568;6.998;2023-12-14T06:50:53;100699.53;;;7.98;100.00
3142;BME280;1581;51.568;6.998;2023-12-14T06:53:21;100703.66;;;8.01;100.00
3142;BME280;1581;51.568;6.998;2023-12-14T06:55:48;100709.00;;;7.93;100.00
3142;BME280;1581;51.568;6.998;2023-12-14T06:58:17;100711.66;;;7.85;100.00
3142;BME280;1581;51.568;6.998;2023-12-14T07:00:47;100707.69;;;7.89;100.00
3142;BME280;1581;51.568;6.998;2023-12-14T07:03:14;100711.66;;;7.93;100.00
3142;BME280;1581;51.568;6.998;2023-12-14T07:05:42;100717.97;;;7.92;100.00
3142;BME280;1581;51.568;6.998;2023-12-14T07:08:10;100717.63;;;7.87;100.00
3142;BME280;1581;51.568;6.998;2023-12-14T07:10:37;100727.41;;;7.94;100.00
3142;BME280;1581;51.568;6.998;2023-12-14T07:13:05;100728.06;;;7.96;100.00
3142;BME280;1581;51.568;6.998;2023-12-14T07:15:33;100733.53;;;7.95;100.00
3142;BME280;1581;51.568;6.998;2023-12-14T07:18:02;100736.69;;;7.98;100.00
3142;BME280;1581;51.568;6.998;2023-12-14T07:20:29;100735.69;;;7.91;100.00
3142;BME280;1581;51.568;6.998;2023-12-14T07:22:57;100746.97;;;7.93;100.00
3142;BME280;1581;51.568;6.998;2023-12-14T07:25:25;100765.72;;;7.84;100.00
3142;BME280;1581;51.568;6.998;2023-12-14T07:27:52;100767.88;;;7.96;100.00
3142;BME280;1581;51.568;6.998;2023-12-14T07:30:20;100775.97;;;7.95;100.00
3142;BME280;1581;51.568;6.998;2023-12-14T07:32:48;100778.50;;;7.88;100.00
3142;BME280;1581;51.568;6.998;2023-12-14T07:35:18;100787.59;;;7.86;100.00
3142;BME280;1581;51.568;6.998;2023-12-14T07:37:46;100793.41;;;7.89;100.00
3142;BME280;1581;51.568;6.998;2023-12-14T07:40:14;100793.75;;;7.86;100.00
3142;BME280;1581;51.568;6.998;2023-12-14T07:42:43;100797.88;;;7.89;100.00
3142;BME280;1581;51.568;6.998;2023-12-14T07:45:10;100801.72;;;7.86;100.00
3142;BME280;1581;51.568;6.998;2023-12-14T07:47:38;100798.44;;;7.76;100.00
3142;BME280;1581;51.568;6.998;2023-12-14T07:50:07;100807.03;;;7.78;100.00
3142;BME280;1581;51.568;6.998;2023-12-14T07:52:36;100814.13;;;7.86;100.00
3142;BME280;1581;51.568;6.998;2023-12-14T07:55:05;100819.16;;;7.73;100.00
3142;BME280;1581;51.568;6.998;2023-12-14T07:57:33;100824.09;;;7.84;100.00
3142;BME280;1581;51.568;6.998;2023-12-14T08:00:00;100822.75;;;7.88;100.00
3142;BME280;1581;51.568;6.998;2023-12-14T08:02:30;100823.75;;;7.87;100.00
3142;BME280;1581;51.568;6.998;2023-12-14T08:04:57;100825.59;;;7.86;100.00
3142;BME280;1581;51.568;6.998;2023-12-14T08:07:25;100830.03;;;7.94;100.00
3142;BME280;1581;51.568;6.998;2023-12-14T08:09:56;100834.53;;;7.93;100.00
3142;BME280;1581;51.568;6.998;2023-12-14T08:12:24;100848.78;;;7.92;100.00
3142;BME280;1581;51.568;6.998;2023-12-14T08:14:52;100846.59;;;8.04;100.00
3142;BME280;1581;51.568;6.998;2023-12-14T08:17:20;100861.88;;;7.94;100.00
3142;BME280;1581;51.568;6.998;2023-12-14T08:19:48;100871.84;;;7.84;100.00
3142;BME280;1581;51.568;6.998;2023-12-14T08:22:15;100872.84;;;7.91;100.00
3142;BME280;1581;51.568;6.998;2023-12-14T08:24:43;100877.78;;;8.02;100.00
3142;BME280;1581;51.568;6.998;2023-12-14T08:27:12;100883.91;;;8.02;100.00
3142;BME280;1581;51.568;6.998;2023-12-14T08:29:40;100885.75;;;8.02;100.00
3142;BME280;1581;51.568;6.998;2023-12-14T08:32:08;100897.69;;;7.98;100.00
3142;BME280;1581;51.568;6.998;2023-12-14T08:34:35;100893.72;;;7.94;100.00
3142;BME280;1581;51.568;6.998;2023-12-14T08:37:04;100911.28;;;7.95;100.00
3142;BME280;1581;51.568;6.998;2023-12-14T08:39:31;100912.28;;;7.94;100.00
3142;BME280;1581;51.568;6.998;2023-12-14T08:41:59;100922.03;;;8.09;100.00
3142;BME280;1581;51.568;6.998;2023-12-14T08:44:28;100924.69;;;8.09;100.00
3142;BME280;1581;51.568;6.998;2023-12-14T08:46:56;100929.69;;;8.04;100.00
3142;BME280;1581;51.568;6.998;2023-12-14T08:49:24;100942.81;;;7.90;100.00
3142;BME280;1581;51.568;6.998;2023-12-14T08:51:51;100937.50;;;7.98;100.00
3142;BME280;1581;51.568;6.998;2023-12-14T08:54:19;100940.16;;;7.98;100.00
3142;BME280;1581;51.568;6.998;2023-12-14T08:56:47;100945.44;;;8.06;100.00
3142;BME280;1581;51.568;6.998;2023-12-14T08:59:14;100955.56;;;8.10;100.00
3142;BME280;1581;51.568;6.998;2023-12-14T09:01:43;100956.53;;;8.09;100.00
3142;BME280;1581;51.568;6.998;2023-12-14T09:04:11;100962.72;;;8.02;100.00
3142;BME280;1581;51.568;6.998;2023-12-14T09:06:39;100966.19;;;7.94;100.00
3142;BME280;1581;51.568;6.998;2023-12-14T09:09:08;100971.00;;;7.91;100.00
3142;BME280;1581;51.568;6.998;2023-12-14T09:11:36;100968.66;;;7.96;100.00
3142;BME280;1581;51.568;6.998;2023-12-14T09:14:04;100980.63;;;8.00;100.00
3142;BME280;1581;51.568;6.998;2023-12-14T09:16:31;100978.78;;;8.00;100.00
3142;BME280;1581;51.568;6.998;2023-12-14T09:19:01;100974.81;;;7.96;100.00
3142;BME280;1581;51.568;6.998;2023-12-14T09:21:28;100985.59;;;8.11;100.00
3142;BME280;1581;51.568;6.998;2023-12-14T09:23:56;100989.06;;;8.03;100.00
3142;BME280;1581;51.568;6.998;2023-12-14T09:26:24;100993.75;;;8.17;100.00
3142;BME280;1581;51.568;6.998;2023-12-14T09:28:52;100999.69;;;8.19;100.00
3142;BME280;1581;51.568;6.998;2023-12-14T09:31:19;101005.34;;;8.24;100.00
3142;BME280;1581;51.568;6.998;2023-12-14T09:33:47;100989.94;;;8.20;100.00
3142;BME280;1581;51.568;6.998;2023-12-14T09:36:16;101000.22;;;8.23;100.00
3142;BME280;1581;51.568;6.998;2023-12-14T09:38:44;100990.09;;;8.26;100.00
3142;BME280;1581;51.568;6.998;2023-12-14T09:41:13;100995.72;;;8.23;100.00
3142;BME280;1581;51.568;6.998;2023-12-14T09:43:41;101006.03;;;8.18;100.00
3142;BME280;1581;51.568;6.998;2023-12-14T09:46:10;101012.47;;;8.16;100.00
3142;BME280;1581;51.568;6.998;2023-12-14T09:48:38;101020.63;;;8.22;100.00
3142;BME280;1581;51.568;6.998;2023-12-14T09:51:07;101007.19;;;8.32;100.00
3142;BME280;1581;51.568;6.998;2023-12-14T09:53:36;101010.19;;;8.21;100.00
3142;BME280;1581;51.568;6.998;2023-12-14T09:56:05;101004.66;;;8.14;100.00
3142;BME280;1581;51.568;6.998;2023-12-14T09:58:34;101012.16;;;8.27;100.00
3142;BME280;1581;51.568;6.998;2023-12-14T10:01:01;101022.97;;;8.17;100.00
3142;BME280;1581;51.568;6.998;2023-12-14T10:03:31;101026.25;;;8.19;100.00
3142;BME280;1581;51.568;6.998;2023-12-14T10:06:00;101031.06;;;8.24;100.00
3142;BME280;1581;51.568;6.998;2023-12-14T10:08:29;101036.88;;;8.27;100.00
3142;BME280;1581;51.568;6.998;2023-12-14T10:10:58;101050.13;;;8.19;100.00
3142;BME280;1581;51.568;6.998;2023-12-14T10:13:37;101051.47;;;8.31;100.00
3142;BME280;1581;51.568;6.998;2023-12-14T10:16:06;101056.63;;;8.33;100.00
3142;BME280;1581;51.568;6.998;2023-12-14T10:18:35;101057.13;;;8.28;100.00
3142;BME280;1581;51.568;6.998;2023-12-14T10:21:03;101072.22;;;8.28;100.00
3142;BME280;1581;51.568;6.998;2023-12-14T10:23:30;101075.22;;;8.33;100.00
3142;BME280;1581;51.568;6.998;2023-12-14T10:25:59;101077.22;;;8.23;100.00
3142;BME280;1581;51.568;6.998;2023-12-14T10:28:27;101075.19;;;8.25;100.00
3142;BME280;1581;51.568;6.998;2023-12-14T10:30:55;101077.53;;;8.28;100.00
3142;BME280;1581;51.568;6.998;2023-12-14T10:33:23;101091.66;;;8.36;100.00
3142;BME280;1581;51.568;6.998;2023-12-14T10:35:52;101096.78;;;8.30;100.00
3142;BME280;1581;51.568;6.998;2023-12-14T10:38:20;101103.09;;;8.21;100.00
3142;BME280;1581;51.568;6.998;2023-12-14T10:40:48;101103.41;;;8.34;100.00
3142;BME280;1581;51.568;6.998;2023-12-14T10:43:18;101111.91;;;8.37;100.00
3142;BME280;1581;51.568;6.998;2023-12-14T10:45:47;101111.22;;;8.43;100.00
3142;BME280;1581;51.568;6.998;2023-12-14T10:48:15;101109.22;;;8.29;100.00
3142;BME280;1581;51.568;6.998;2023-12-14T10:50:47;101116.53;;;8.27;100.00
3142;BME280;1581;51.568;6.998;2023-12-14T10:53:15;101107.41;;;8.38;100.00
3142;BME280;1581;51.568;6.998;2023-12-14T10:55:44;101110.22;;;8.36;100.00
3142;BME280;1581;51.568;6.998;2023-12-14T10:58:12;101113.69;;;8.45;100.00
3142;BME280;1581;51.568;6.998;2023-12-14T11:00:42;101115.22;;;8.47;100.00
3142;BME280;1581;51.568;6.998;2023-12-14T11:03:13;101120.84;;;8.44;100.00
3142;BME280;1581;51.568;6.998;2023-12-14T11:05:43;101117.84;;;8.31;100.00
3142;BME280;1581;51.568;6.998;2023-12-14T11:08:11;101120.84;;;8.36;100.00
3142;BME280;1581;51.568;6.998;2023-12-14T11:10:41;101123.34;;;8.38;100.00
3142;BME280;1581;51.568;6.998;2023-12-14T11:13:12;101122.47;;;8.29;100.00
3142;BME280;1581;51.568;6.998;2023-12-14T11:15:48;101126.63;;;8.24;100.00
3142;BME280;1581;51.568;6.998;2023-12-14T11:18:27;101130.31;;;8.39;100.00
3142;BME280;1581;51.568;6.998;2023-12-14T11:20:57;101152.34;;;8.23;100.00
3142;BME280;1581;51.568;6.998;2023-12-14T11:23:31;101146.56;;;8.36;100.00
3142;BME280;1581;51.568;6.998;2023-12-14T11:26:00;101146.56;;;8.28;100.00
3142;BME280;1581;51.568;6.998;2023-12-14T11:28:31;101146.88;;;8.25;100.00
3142;BME280;1581;51.568;6.998;2023-12-14T11:31:01;101163.06;;;8.14;100.00
3142;BME280;1581;51.568;6.998;2023-12-14T11:33:33;101163.44;;;8.11;100.00
3142;BME280;1581;51.568;6.998;2023-12-14T11:36:02;101168.13;;;8.25;100.00
3142;BME280;1581;51.568;6.998;2023-12-14T11:38:31;101167.78;;;8.20;100.00
3142;BME280;1581;51.568;6.998;2023-12-14T11:40:59;101167.06;;;8.10;100.00
3142;BME280;1581;51.568;6.998;2023-12-14T11:43:27;101168.38;;;8.14;100.00
3142;BME280;1581;51.568;6.998;2023-12-14T11:45:55;101174.53;;;8.14;100.00
3142;BME280;1581;51.568;6.998;2023-12-14T11:48:24;101174.41;;;8.16;100.00
3142;BME280;1581;51.568;6.998;2023-12-14T11:50:52;101176.56;;;8.20;100.00
3142;BME280;1581;51.568;6.998;2023-12-14T11:53:20;101182.38;;;8.16;100.00
3142;BME280;1581;51.568;6.998;2023-12-14T11:55:48;101178.91;;;8.31;100.00
3142;BME280;1581;51.568;6.998;2023-12-14T11:58:16;101178.41;;;8.20;100.00
3142;BME280;1581;51.568;6.998;2023-12-14T12:00:44;101183.22;;;8.24;100.00
3142;BME280;1581;51.568;6.998;2023-12-14T12:03:15;101184.38;;;8.22;100.00
3142;BME280;1581;51.568;6.998;2023-12-14T12:05:51;101188.81;;;8.13;100.00
3142;BME280;1581;51.568;6.998;2023-12-14T12:08:20;101179.56;;;8.17;100.00
3142;BME280;1581;51.568;6.998;2023-12-14T12:10:49;101184.88;;;8.25;100.00
3142;BME280;1581;51.568;6.998;2023-12-14T12:13:19;101178.41;;;8.36;100.00
3142;BME280;1581;51.568;6.998;2023-12-14T12:15:51;101181.25;;;8.26;100.00
3142;BME280;1581;51.568;6.998;2023-12-14T12:18:21;101186.56;;;8.26;100.00
3142;BME280;1581;51.568;6.998;2023-12-14T12:20:59;101179.41;;;8.19;100.00
3142;BME280;1581;51.568;6.998;2023-12-14T12:23:36;101187.81;;;8.14;100.00
3142;BME280;1581;51.568;6.998;2023-12-14T12:26:05;101185.28;;;8.05;100.00
3142;BME280;1581;51.568;6.998;2023-12-14T12:28:34;101180.56;;;8.24;100.00
3142;BME280;1581;51.568;6.998;2023-12-14T12:31:02;101194.16;;;8.29;100.00
3142;BME280;1581;51.568;6.998;2023-12-14T12:33:31;101190.03;;;8.27;100.00
3142;BME280;1581;51.568;6.998;2023-12-14T12:36:06;101191.00;;;8.26;100.00
3142;BME280;1581;51.568;6.998;2023-12-14T12:38:34;101199.66;;;8.36;100.00
3142;BME280;1581;51.568;6.998;2023-12-14T12:41:06;101200.66;;;8.27;100.00
3142;BME280;1581;51.568;6.998;2023-12-14T12:43:34;101191.56;;;8.37;100.00
3142;BME280;1581;51.568;6.998;2023-12-14T12:46:02;101196.50;;;8.32;100.00
3142;BME280;1581;51.568;6.998;2023-12-14T12:48:31;101204.00;;;8.45;100.00
3142;BME280;1581;51.568;6.998;2023-12-14T12:50:59;101205.16;;;8.42;100.00
3142;BME280;1581;51.568;6.998;2023-12-14T12:53:30;101209.97;;;8.39;100.00
3142;BME280;1581;51.568;6.998;2023-12-14T12:56:01;101209.66;;;8.42;100.00
3142;BME280;1581;51.568;6.998;2023-12-14T12:58:31;101216.56;;;8.27;100.00
3142;BME280;1581;51.568;6.998;2023-12-14T13:00:59;101217.72;;;8.24;100.00
3142;BME280;1581;51.568;6.998;2023-12-14T13:03:27;101222.03;;;8.17;100.00
3142;BME280;1581;51.568;6.998;2023-12-14T13:05:55;101232.25;;;8.12;100.00
3142;BME280;1581;51.568;6.998;2023-12-14T13:08:23;101234.31;;;8.18;100.00
3142;BME280;1581;51.568;6.998;2023-12-14T13:10:52;101230.16;;;8.16;100.00
3142;BME280;1581;51.568;6.998;2023-12-14T13:13:21;101229.31;;;8.15;100.00
3142;BME280;1581;51.568;6.998;2023-12-14T13:15:48;101234.72;;;8.06;100.00